sensor_id;sensor_type;location;lat;lon;timestamp;temperature;humidity
7502;DHT22;3792;47.740;7.606;2023-02-08T00:00:53;-1.60;99.90
7502;DHT22;3792;47.740;7.606;2023-02-08T00:03:20;-1.60;99.90
7502;DHT22;3792;47.740;7.606;2023-02-08T00:05:48;-1.50;99.90
7502;DHT22;3792;47.740;7.606;2023-02-08T00:08:15;-1.60;99.90
7502;DHT22;3792;47.740;7.606;2023-02-08T00:10:43;-1.50;99.90
7502;DHT22;3792;47.740;7.606;2023-02-08T00:13:10;-1.50;99.90
7502;DHT22;3792;47.740;7.606;2023-02-08T00:15:42;-1.60;99.90
7502;DHT22;3792;47.740;7.606;2023-02-08T00:18:09;-1.80;99.90
7502;DHT22;3792;47.740;7.606;2023-02-08T00:20:37;-1.90;99.90
7502;DHT22;3792;47.740;7.606;2023-02-08T00:23:05;-1.90;99.90
7502;DHT22;3792;47.740;7.606;2023-02-08T00:25:32;-1.80;99.90
7502;DHT22;3792;47.740;7.606;2023-02-08T00:28:00;-1.80;99.90
7502;DHT22;3792;47.740;7.606;2023-02-08T00:30:27;-1.80;99.90
7502;DHT22;3792;47.740;7.606;2023-02-08T00:32:55;-1.80;99.90
7502;DHT22;3792;47.740;7.606;2023-02-08T00:35:22;-1.90;99.90
7502;DHT22;3792;47.740;7.606;2023-02-08T00:37:49;-2.00;99.90
7502;DHT22;3792;47.740;7.606;2023-02-08T00:40:16;-2.00;99.90
7502;DHT22;3792;47.740;7.606;2023-02-08T00:42:43;-2.10;99.90
7502;DHT22;3792;47.740;7.606;2023-02-08T00:45:11;-2.00;99.90
7502;DHT22;3792;47.740;7.606;2023-02-08T00:47:38;-2.00;99.90
7502;DHT22;3792;47.740;7.606;2023-02-08T00:50:08;-2.10;99.90
7502;DHT22;3792;47.740;7.606;2023-02-08T00:52:35;-2.00;99.90
7502;DHT22;3792;47.740;7.606;2023-02-08T00:55:03;-2.00;99.90
7502;DHT22;3792;47.740;7.606;2023-02-08T00:57:31;-2.10;99.90
7502;DHT22;3792;47.740;7.606;2023-02-08T00:59:58;-2.20;99.90
7502;DHT22;3792;47.740;7.606;2023-02-08T01:02:25;-2.20;99.90
7502;DHT22;3792;47.740;7.606;2023-02-08T01:04:53;-2.20;99.90
7502;DHT22;3792;47.740;7.606;2023-02-08T01:07:21;-2.10;99.90
7502;DHT22;3792;47.740;7.606;2023-02-08T01:09:48;-2.20;99.90
7502;DHT22;3792;47.740;7.606;2023-02-08T01:12:15;-2.30;99.90
7502;DHT22;3792;47.740;7.606;2023-02-08T01:14:42;-2.20;99.90
7502;DHT22;3792;47.740;7.606;2023-02-08T01:17:09;-2.20;99.90
7502;DHT22;3792;47.740;7.606;2023-02-08T01:19:36;-2.10;99.90
7502;DHT22;3792;47.740;7.606;2023-02-08T01:22:03;-2.10;99.90
7502;DHT22;3792;47.740;7.606;2023-02-08T01:24:32;-2.10;99.90
7502;DHT22;3792;47.740;7.606;2023-02-08T01:26:59;-2.20;99.90
7502;DHT22;3792;47.740;7.606;2023-02-08T01:29:26;-2.20;99.90
7502;DHT22;3792;47.740;7.606;2023-02-08T01:31:53;-2.30;99.90
7502;DHT22;3792;47.740;7.606;2023-02-08T01:34:20;-2.40;99.90
7502;DHT22;3792;47.740;7.606;2023-02-08T01:36:48;-2.30;99.90
7502;DHT22;3792;47.740;7.606;2023-02-08T01:39:15;-2.30;99.90
7502;DHT22;3792;47.740;7.606;2023-02-08T01:41:44;-2.40;99.90
7502;DHT22;3792;47.740;7.606;2023-02-08T01:47:15;-2.20;99.90
7502;DHT22;3792;47.740;7.606;2023-02-08T01:49:42;-2.20;99.90
7502;DHT22;3792;47.740;7.606;2023-02-08T01:52:12;-2.10;99.90
7502;DHT22;3792;47.740;7.606;2023-02-08T01:54:43;-2.00;99.90
7502;DHT22;3792;47.740;7.606;2023-02-08T01:57:13;-2.00;99.90
7502;DHT22;3792;47.740;7.606;2023-02-08T01:59:44;-2.10;99.90
7502;DHT22;3792;47.740;7.606;2023-02-08T02:02:15;-2.10;99.90
7502;DHT22;3792;47.740;7.606;2023-02-08T02:04:43;-2.10;99.90
7502;DHT22;3792;47.740;7.606;2023-02-08T02:07:11;-2.30;99.90
7502;DHT22;3792;47.740;7.606;2023-02-08T02:09:43;-2.30;99.90
7502;DHT22;3792;47.740;7.606;2023-02-08T02:12:10;-2.30;99.90
7502;DHT22;3792;47.740;7.606;2023-02-08T02:14:40;-2.30;99.90
7502;DHT22;3792;47.740;7.606;2023-02-08T02:17:10;-2.20;99.90
7502;DHT22;3792;47.740;7.606;2023-02-08T02:19:47;-2.20;99.90
7502;DHT22;3792;47.740;7.606;2023-02-08T02:25:33;-2.40;99.90
7502;DHT22;3792;47.740;7.606;2023-02-08T02:31:32;-2.50;99.90
7502;DHT22;3792;47.740;7.606;2023-02-08T02:34:04;-2.70;99.90
7502;DHT22;3792;47.740;7.606;2023-02-08T02:36:44;-2.70;99.90
7502;DHT22;3792;47.740;7.606;2023-02-08T02:39:19;-2.70;99.90
7502;DHT22;3792;47.740;7.606;2023-02-08T02:41:55;-2.70;99.90
7502;DHT22;3792;47.740;7.606;2023-02-08T02:44:50;-2.60;99.90
7502;DHT22;3792;47.740;7.606;2023-02-08T02:47:27;-2.60;99.90
7502;DHT22;3792;47.740;7.606;2023-02-08T02:50:03;-2.60;99.90
7502;DHT22;3792;47.740;7.606;2023-02-08T02:52:37;-2.50;99.90
7502;DHT22;3792;47.740;7.606;2023-02-08T02:55:09;-2.60;99.90
7502;DHT22;3792;47.740;7.606;2023-02-08T02:57:38;-2.70;99.90
7502;DHT22;3792;47.740;7.606;2023-02-08T03:00:09;-2.80;99.90
7502;DHT22;3792;47.740;7.606;2023-02-08T03:02:38;-2.90;99.90
7502;DHT22;3792;47.740;7.606;2023-02-08T03:05:08;-2.90;99.90
7502;DHT22;3792;47.740;7.606;2023-02-08T03:07:48;-2.90;99.90
7502;DHT22;3792;47.740;7.606;2023-02-08T03:10:53;-2.90;99.90
7502;DHT22;3792;47.740;7.606;2023-02-08T03:13:28;-2.90;99.90
7502;DHT22;3792;47.740;7.606;2023-02-08T03:16:10;-2.90;99.90
7502;DHT22;3792;47.740;7.606;2023-02-08T03:18:51;-2.80;99.90
7502;DHT22;3792;47.740;7.606;2023-02-08T03:21:31;-2.80;99.90
7502;DHT22;3792;47.740;7.606;2023-02-08T03:24:08;-2.80;99.90
7502;DHT22;3792;47.740;7.606;2023-02-08T03:26:39;-2.70;99.90
7502;DHT22;3792;47.740;7.606;2023-02-08T03:29:15;-2.80;99.90
7502;DHT22;3792;47.740;7.606;2023-02-08T03:31:47;-2.80;99.90
7502;DHT22;3792;47.740;7.606;2023-02-08T03:34:21;-2.90;99.90
7502;DHT22;3792;47.740;7.606;2023-02-08T03:36:54;-2.90;99.90
7502;DHT22;3792;47.740;7.606;2023-02-08T03:39:26;-3.00;99.90
7502;DHT22;3792;47.740;7.606;2023-02-08T03:41:56;-3.10;99.90
7502;DHT22;3792;47.740;7.606;2023-02-08T03:44:27;-3.10;99.90
7502;DHT22;3792;47.740;7.606;2023-02-08T03:46:58;-3.10;99.90
7502;DHT22;3792;47.740;7.606;2023-02-08T03:49:32;-3.10;99.90
7502;DHT22;3792;47.740;7.606;2023-02-08T03:52:03;-3.10;99.90
7502;DHT22;3792;47.740;7.606;2023-02-08T03:54:34;-3.20;99.90
7502;DHT22;3792;47.740;7.606;2023-02-08T03:57:05;-3.10;99.90
7502;DHT22;3792;47.740;7.606;2023-02-08T03:59:36;-3.10;99.90
7502;DHT22;3792;47.740;7.606;2023-02-08T04:02:06;-3.20;99.90
7502;DHT22;3792;47.740;7.606;2023-02-08T04:04:38;-3.20;99.90
7502;DHT22;3792;47.740;7.606;2023-02-08T04:07:07;-3.30;99.90
7502;DHT22;3792;47.740;7.606;2023-02-08T04:09:34;-3.30;99.90
7502;DHT22;3792;47.740;7.606;2023-02-08T04:12:01;-3.30;99.90
7502;DHT22;3792;47.740;7.606;2023-02-08T04:14:28;-3.30;99.90
7502;DHT22;3792;47.740;7.606;2023-02-08T04:16:55;-3.30;99.90
7502;DHT22;3792;47.740;7.606;2023-02-08T04:19:22;-3.30;99.90
7502;DHT22;3792;47.740;7.606;2023-02-08T04:21:50;-3.30;99.90
7502;DHT22;3792;47.740;7.606;2023-02-08T04:24:17;-3.30;99.90
7502;DHT22;3792;47.740;7.606;2023-02-08T04:26:44;-3.30;99.90
7502;DHT22;3792;47.740;7.606;2023-02-08T04:29:12;-3.20;99.90
7502;DHT22;3792;47.740;7.606;2023-02-08T04:31:39;-3.30;99.90
7502;DHT22;3792;47.740;7.606;2023-02-08T04:34:06;-3.20;99.90
7502;DHT22;3792;47.740;7.606;2023-02-08T04:36:34;-3.20;99.90
7502;DHT22;3792;47.740;7.606;2023-02-08T04:39:02;-3.30;99.90
7502;DHT22;3792;47.740;7.606;2023-02-08T04:41:29;-3.30;99.90
7502;DHT22;3792;47.740;7.606;2023-02-08T04:43:56;-3.50;99.90
7502;DHT22;3792;47.740;7.606;2023-02-08T04:46:23;-3.50;99.90
7502;DHT22;3792;47.740;7.606;2023-02-08T04:48:50;-3.60;99.90
7502;DHT22;3792;47.740;7.606;2023-02-08T04:51:18;-3.60;99.90
7502;DHT22;3792;47.740;7.606;2023-02-08T04:53:45;-3.50;99.90
7502;DHT22;3792;47.740;7.606;2023-02-08T04:56:13;-3.50;99.90
7502;DHT22;3792;47.740;7.606;2023-02-08T04:58:40;-3.60;99.90
7502;DHT22;3792;47.740;7.606;2023-02-08T05:01:08;-3.70;99.90
7502;DHT22;3792;47.740;7.606;2023-02-08T05:03:36;-3.70;99.90
7502;DHT22;3792;47.740;7.606;2023-02-08T05:06:03;-3.60;99.90
7502;DHT22;3792;47.740;7.606;2023-02-08T05:08:31;-3.60;99.90
7502;DHT22;3792;47.740;7.606;2023-02-08T05:10:58;-3.50;99.90
7502;DHT22;3792;47.740;7.606;2023-02-08T05:13:26;-3.50;99.90
7502;DHT22;3792;47.740;7.606;2023-02-08T05:15:54;-3.40;99.90
7502;DHT22;3792;47.740;7.606;2023-02-08T05:18:21;-3.40;99.90
7502;DHT22;3792;47.740;7.606;2023-02-08T05:20:53;-3.40;99.90
7502;DHT22;3792;47.740;7.606;2023-02-08T05:23:21;-3.40;99.90
7502;DHT22;3792;47.740;7.606;2023-02-08T05:25:48;-3.40;99.90
7502;DHT22;3792;47.740;7.606;2023-02-08T05:28:15;-3.40;99.90
7502;DHT22;3792;47.740;7.606;2023-02-08T05:30:44;-3.40;99.90
7502;DHT22;3792;47.740;7.606;2023-02-08T05:33:11;-3.60;99.90
7502;DHT22;3792;47.740;7.606;2023-02-08T05:35:39;-3.60;99.90
7502;DHT22;3792;47.740;7.606;2023-02-08T05:38:06;-3.70;99.90
7502;DHT22;3792;47.740;7.606;2023-02-08T05:40:33;-3.70;99.90
7502;DHT22;3792;47.740;7.606;2023-02-08T05:43:00;-3.60;99.90
7502;DHT22;3792;47.740;7.606;2023-02-08T05:45:28;-3.80;99.90
7502;DHT22;3792;47.740;7.606;2023-02-08T05:47:56;-3.70;99.90
7502;DHT22;3792;47.740;7.606;2023-02-08T05:50:23;-3.60;99.90
7502;DHT22;3792;47.740;7.606;2023-02-08T05:52:50;-3.70;99.90
7502;DHT22;3792;47.740;7.606;2023-02-08T05:55:17;-3.70;99.90
7502;DHT22;3792;47.740;7.606;2023-02-08T05:57:44;-3.70;99.90
7502;DHT22;3792;47.740;7.606;2023-02-08T06:00:12;-3.80;99.90
7502;DHT22;3792;47.740;7.606;2023-02-08T06:02:39;-3.90;99.90
7502;DHT22;3792;47.740;7.606;2023-02-08T06:05:08;-3.80;99.90
7502;DHT22;3792;47.740;7.606;2023-02-08T06:07:35;-3.70;99.90
7502;DHT22;3792;47.740;7.606;2023-02-08T06:10:03;-3.70;99.90
7502;DHT22;3792;47.740;7.606;2023-02-08T06:12:30;-3.80;99.90
7502;DHT22;3792;47.740;7.606;2023-02-08T06:14:57;-3.80;99.90
7502;DHT22;3792;47.740;7.606;2023-02-08T06:17:24;-3.80;99.90
7502;DHT22;3792;47.740;7.606;2023-02-08T06:19:51;-3.90;99.90
7502;DHT22;3792;47.740;7.606;2023-02-08T06:22:19;-3.90;99.90
7502;DHT22;3792;47.740;7.606;2023-02-08T06:24:46;-3.80;99.90
7502;DHT22;3792;47.740;7.606;2023-02-08T06:27:13;-3.80;99.90
7502;DHT22;3792;47.740;7.606;2023-02-08T06:29:41;-3.80;99.90
7502;DHT22;3792;47.740;7.606;2023-02-08T06:32:08;-3.70;99.90
7502;DHT22;3792;47.740;7.606;2023-02-08T06:34:35;-3.70;99.90
7502;DHT22;3792;47.740;7.606;2023-02-08T06:37:03;-3.80;99.90
7502;DHT22;3792;47.740;7.606;2023-02-08T06:39:31;-3.90;99.90
7502;DHT22;3792;47.740;7.606;2023-02-08T06:41:58;-3.90;99.90
7502;DHT22;3792;47.740;7.606;2023-02-08T06:44:26;-3.80;99.90
7502;DHT22;3792;47.740;7.606;2023-02-08T06:46:53;-3.80;99.90
7502;DHT22;3792;47.740;7.606;2023-02-08T06:49:20;-3.90;99.90
7502;DHT22;3792;47.740;7.606;2023-02-08T06:51:47;-3.90;99.90
7502;DHT22;3792;47.740;7.606;2023-02-08T06:54:14;-3.90;99.90
7502;DHT22;3792;47.740;7.606;2023-02-08T06:56:42;-3.90;99.90
7502;DHT22;3792;47.740;7.606;2023-02-08T06:59:09;-4.00;99.90
7502;DHT22;3792;47.740;7.606;2023-02-08T07:01:36;-3.90;99.90
7502;DHT22;3792;47.740;7.606;2023-02-08T07:04:04;-3.80;99.90
7502;DHT22;3792;47.740;7.606;2023-02-08T07:06:32;-3.80;99.90
7502;DHT22;3792;47.740;7.606;2023-02-08T07:08:59;-3.90;99.90
7502;DHT22;3792;47.740;7.606;2023-02-08T07:11:27;-3.90;99.90
7502;DHT22;3792;47.740;7.606;2023-02-08T07:13:55;-3.90;99.90
7502;DHT22;3792;47.740;7.606;2023-02-08T07:16:22;-3.80;99.90
7502;DHT22;3792;47.740;7.606;2023-02-08T07:18:49;-3.80;99.90
7502;DHT22;3792;47.740;7.606;2023-02-08T07:21:16;-3.70;99.90
7502;DHT22;3792;47.740;7.606;2023-02-08T07:23:44;-3.80;99.90
7502;DHT22;3792;47.740;7.606;2023-02-08T07:26:11;-3.90;99.90
7502;DHT22;3792;47.740;7.606;2023-02-08T07:28:39;-3.80;99.90
7502;DHT22;3792;47.740;7.606;2023-02-08T07:31:08;-3.80;99.90
7502;DHT22;3792;47.740;7.606;2023-02-08T07:33:37;-3.90;99.90
7502;DHT22;3792;47.740;7.606;2023-02-08T07:36:05;-3.90;99.90
7502;DHT22;3792;47.740;7.606;2023-02-08T07:38:34;-3.80;99.90
7502;DHT22;3792;47.740;7.606;2023-02-08T07:41:01;-3.80;99.90
7502;DHT22;3792;47.740;7.606;2023-02-08T07:43:28;-3.80;99.90
7502;DHT22;3792;47.740;7.606;2023-02-08T07:45:56;-3.60;99.90
7502;DHT22;3792;47.740;7.606;2023-02-08T07:48:24;-3.40;99.90
7502;DHT22;3792;47.740;7.606;2023-02-08T07:50:51;-3.20;99.90
7502;DHT22;3792;47.740;7.606;2023-02-08T07:53:18;-2.80;99.90
7502;DHT22;3792;47.740;7.606;2023-02-08T07:55:45;-2.60;99.90
7502;DHT22;3792;47.740;7.606;2023-02-08T07:58:13;-2.40;99.90
7502;DHT22;3792;47.740;7.606;2023-02-08T08:00:40;-2.20;99.90
7502;DHT22;3792;47.740;7.606;2023-02-08T08:03:07;-2.00;99.90
7502;DHT22;3792;47.740;7.606;2023-02-08T08:05:35;-1.60;99.90
7502;DHT22;3792;47.740;7.606;2023-02-08T08:08:05;-1.40;99.90
7502;DHT22;3792;47.740;7.606;2023-02-08T08:10:33;-1.20;99.90
7502;DHT22;3792;47.740;7.606;2023-02-08T08:13:00;-1.10;99.90
7502;DHT22;3792;47.740;7.606;2023-02-08T08:15:27;-0.90;99.90
7502;DHT22;3792;47.740;7.606;2023-02-08T08:17:54;-0.80;99.90
7502;DHT22;3792;47.740;7.606;2023-02-08T08:20:22;-0.50;99.90
7502;DHT22;3792;47.740;7.606;2023-02-08T08:22:50;-0.10;99.90
7502;DHT22;3792;47.740;7.606;2023-02-08T08:25:17;-0.10;99.90
7502;DHT22;3792;47.740;7.606;2023-02-08T08:27:44;0.00;99.90
7502;DHT22;3792;47.740;7.606;2023-02-08T08:30:13;0.20;99.90
7502;DHT22;3792;47.740;7.606;2023-02-08T08:32:41;0.40;99.90
7502;DHT22;3792;47.740;7.606;2023-02-08T08:35:08;0.40;99.90
7502;DHT22;3792;47.740;7.606;2023-02-08T08:37:36;0.60;99.90
7502;DHT22;3792;47.740;7.606;2023-02-08T08:40:05;0.90;99.90
7502;DHT22;3792;47.740;7.606;2023-02-08T08:42:33;1.10;99.90
7502;DHT22;3792;47.740;7.606;2023-02-08T08:45:01;1.30;99.90
7502;DHT22;3792;47.740;7.606;2023-02-08T08:47:28;1.70;99.90
7502;DHT22;3792;47.740;7.606;2023-02-08T08:49:55;2.00;99.90
7502;DHT22;3792;47.740;7.606;2023-02-08T08:52:22;2.20;99.90
7502;DHT22;3792;47.740;7.606;2023-02-08T08:54:49;2.50;99.90
7502;DHT22;3792;47.740;7.606;2023-02-08T08:57:17;2.80;99.90
7502;DHT22;3792;47.740;7.606;2023-02-08T08:59:44;3.00;99.90
7502;DHT22;3792;47.740;7.606;2023-02-08T09:02:12;3.20;99.90
7502;DHT22;3792;47.740;7.606;2023-02-08T09:04:40;3.30;99.90
7502;DHT22;3792;47.740;7.606;2023-02-08T09:07:09;3.10;99.90
7502;DHT22;3792;47.740;7.606;2023-02-08T09:09:36;3.50;99.90
7502;DHT22;3792;47.740;7.606;2023-02-08T09:12:04;3.90;99.90
7502;DHT22;3792;47.740;7.606;2023-02-08T09:14:32;4.10;99.90
7502;DHT22;3792;47.740;7.606;2023-02-08T09:16:59;4.00;99.90
7502;DHT22;3792;47.740;7.606;2023-02-08T09:19:27;4.30;99.90
7502;DHT22;3792;47.740;7.606;2023-02-08T09:21:54;4.80;99.90
7502;DHT22;3792;47.740;7.606;2023-02-08T09:24:22;5.00;99.20
7502;DHT22;3792;47.740;7.606;2023-02-08T09:26:50;5.20;99.60
7502;DHT22;3792;47.740;7.606;2023-02-08T09:29:17;5.60;99.90
7502;DHT22;3792;47.740;7.606;2023-02-08T09:31:45;5.00;98.60
7502;DHT22;3792;47.740;7.606;2023-02-08T09:34:12;5.40;99.40
7502;DHT22;3792;47.740;7.606;2023-02-08T09:36:40;6.00;99.00
7502;DHT22;3792;47.740;7.606;2023-02-08T09:39:09;6.50;98.80
7502;DHT22;3792;47.740;7.606;2023-02-08T09:41:53;6.70;97.80
7502;DHT22;3792;47.740;7.606;2023-02-08T09:44:27;7.10;97.20
7502;DHT22;3792;47.740;7.606;2023-02-08T09:47:02;7.10;96.70
7502;DHT22;3792;47.740;7.606;2023-02-08T09:49:35;7.30;96.20
7502;DHT22;3792;47.740;7.606;2023-02-08T09:52:08;7.60;96.00
7502;DHT22;3792;47.740;7.606;2023-02-08T09:54:40;7.60;95.20
7502;DHT22;3792;47.740;7.606;2023-02-08T09:57:12;7.70;94.50
7502;DHT22;3792;47.740;7.606;2023-02-08T09:59:50;7.50;93.80
7502;DHT22;3792;47.740;7.606;2023-02-08T10:02:24;7.60;94.20
7502;DHT22;3792;47.740;7.606;2023-02-08T10:04:57;7.80;92.80
7502;DHT22;3792;47.740;7.606;2023-02-08T10:07:25;7.50;93.00
7502;DHT22;3792;47.740;7.606;2023-02-08T10:09:56;7.60;91.80
7502;DHT22;3792;47.740;7.606;2023-02-08T10:12:36;7.90;92.40
7502;DHT22;3792;47.740;7.606;2023-02-08T10:15:09;8.00;92.70
7502;DHT22;3792;47.740;7.606;2023-02-08T10:18:05;8.60;91.90
7502;DHT22;3792;47.740;7.606;2023-02-08T10:20:45;9.10;91.60
7502;DHT22;3792;47.740;7.606;2023-02-08T10:23:26;9.00;88.40
7502;DHT22;3792;47.740;7.606;2023-02-08T10:26:12;8.90;86.30
7502;DHT22;3792;47.740;7.606;2023-02-08T10:31:53;9.40;84.40
7502;DHT22;3792;47.740;7.606;2023-02-08T10:34:33;9.70;83.60
7502;DHT22;3792;47.740;7.606;2023-02-08T10:37:08;9.60;82.40
7502;DHT22;3792;47.740;7.606;2023-02-08T10:39:38;9.90;81.30
7502;DHT22;3792;47.740;7.606;2023-02-08T10:42:11;9.90;81.70
7502;DHT22;3792;47.740;7.606;2023-02-08T10:44:53;9.80;81.10
7502;DHT22;3792;47.740;7.606;2023-02-08T10:47:34;9.80;79.30
7502;DHT22;3792;47.740;7.606;2023-02-08T10:50:06;9.80;79.10
7502;DHT22;3792;47.740;7.606;2023-02-08T10:52:37;10.00;76.80
7502;DHT22;3792;47.740;7.606;2023-02-08T10:55:12;10.10;76.90
7502;DHT22;3792;47.740;7.606;2023-02-08T10:57:41;10.00;73.30
7502;DHT22;3792;47.740;7.606;2023-02-08T11:00:11;9.90;74.00
7502;DHT22;3792;47.740;7.606;2023-02-08T11:02:41;10.10;72.40
7502;DHT22;3792;47.740;7.606;2023-02-08T11:05:12;10.10;72.30
7502;DHT22;3792;47.740;7.606;2023-02-08T11:07:39;10.10;74.10
7502;DHT22;3792;47.740;7.606;2023-02-08T11:10:24;10.40;73.30
7502;DHT22;3792;47.740;7.606;2023-02-08T11:12:57;10.10;71.80
7502;DHT22;3792;47.740;7.606;2023-02-08T11:15:26;10.30;73.50
7502;DHT22;3792;47.740;7.606;2023-02-08T11:17:58;10.70;73.00
7502;DHT22;3792;47.740;7.606;2023-02-08T11:20:32;10.80;69.20
7502;DHT22;3792;47.740;7.606;2023-02-08T11:23:01;10.80;71.00
7502;DHT22;3792;47.740;7.606;2023-02-08T11:25:36;11.00;69.70
7502;DHT22;3792;47.740;7.606;2023-02-08T11:28:04;11.30;68.50
7502;DHT22;3792;47.740;7.606;2023-02-08T11:30:31;11.00;67.40
7502;DHT22;3792;47.740;7.606;2023-02-08T11:33:14;10.80;67.00
7502;DHT22;3792;47.740;7.606;2023-02-08T11:35:58;10.60;69.10
7502;DHT22;3792;47.740;7.606;2023-02-08T11:38:26;10.50;69.10
7502;DHT22;3792;47.740;7.606;2023-02-08T11:40:55;10.80;69.60
7502;DHT22;3792;47.740;7.606;2023-02-08T11:43:26;10.90;68.70
7502;DHT22;3792;47.740;7.606;2023-02-08T11:45:55;11.10;69.40
7502;DHT22;3792;47.740;7.606;2023-02-08T11:48:25;11.40;67.40
7502;DHT22;3792;47.740;7.606;2023-02-08T11:50:59;11.70;66.80
7502;DHT22;3792;47.740;7.606;2023-02-08T11:53:29;11.50;66.50
7502;DHT22;3792;47.740;7.606;2023-02-08T11:56:03;11.40;66.10
7502;DHT22;3792;47.740;7.606;2023-02-08T11:58:31;11.60;64.50
7502;DHT22;3792;47.740;7.606;2023-02-08T12:01:00;10.30;65.70
7502;DHT22;3792;47.740;7.606;2023-02-08T12:03:30;10.10;67.90
7502;DHT22;3792;47.740;7.606;2023-02-08T12:06:15;10.80;67.80
7502;DHT22;3792;47.740;7.606;2023-02-08T12:08:52;10.60;65.90
7502;DHT22;3792;47.740;7.606;2023-02-08T12:11:24;10.50;65.00
7502;DHT22;3792;47.740;7.606;2023-02-08T12:14:19;10.70;65.00
7502;DHT22;3792;47.740;7.606;2023-02-08T12:16:55;10.90;64.20
7502;DHT22;3792;47.740;7.606;2023-02-08T12:19:53;11.20;64.00
7502;DHT22;3792;47.740;7.606;2023-02-08T12:22:27;11.10;63.40
7502;DHT22;3792;47.740;7.606;2023-02-08T12:25:05;11.10;61.50
7502;DHT22;3792;47.740;7.606;2023-02-08T12:27:43;11.10;61.90
7502;DHT22;3792;47.740;7.606;2023-02-08T12:30:20;11.10;60.70
7502;DHT22;3792;47.740;7.606;2023-02-08T12:33:19;10.70;62.30
7502;DHT22;3792;47.740;7.606;2023-02-08T12:36:00;10.90;62.50
7502;DHT22;3792;47.740;7.606;2023-02-08T12:38:46;11.20;61.40
7502;DHT22;3792;47.740;7.606;2023-02-08T12:41:38;11.00;60.90
7502;DHT22;3792;47.740;7.606;2023-02-08T12:44:14;11.20;61.30
7502;DHT22;3792;47.740;7.606;2023-02-08T12:46:54;11.70;60.80
7502;DHT22;3792;47.740;7.606;2023-02-08T12:49:45;12.00;61.10
7502;DHT22;3792;47.740;7.606;2023-02-08T12:52:27;11.40;60.40
7502;DHT22;3792;47.740;7.606;2023-02-08T12:55:00;11.30;61.10
7502;DHT22;3792;47.740;7.606;2023-02-08T12:57:30;11.80;62.60
7502;DHT22;3792;47.740;7.606;2023-02-08T13:00:02;11.80;60.60
7502;DHT22;3792;47.740;7.606;2023-02-08T13:02:33;11.50;60.20
7502;DHT22;3792;47.740;7.606;2023-02-08T13:05:12;11.80;60.40
7502;DHT22;3792;47.740;7.606;2023-02-08T13:07:50;11.10;60.80
7502;DHT22;3792;47.740;7.606;2023-02-08T13:10:35;10.20;63.10
7502;DHT22;3792;47.740;7.606;2023-02-08T13:13:10;10.40;62.20
7502;DHT22;3792;47.740;7.606;2023-02-08T13:15:41;10.70;61.20
7502;DHT22;3792;47.740;7.606;2023-02-08T13:18:19;11.40;61.80
7502;DHT22;3792;47.740;7.606;2023-02-08T13:20:53;11.70;60.90
7502;DHT22;3792;47.740;7.606;2023-02-08T13:23:29;11.70;59.80
7502;DHT22;3792;47.740;7.606;2023-02-08T13:26:10;11.30;61.90
7502;DHT22;3792;47.740;7.606;2023-02-08T13:28:45;10.90;61.70
7502;DHT22;3792;47.740;7.606;2023-02-08T13:31:20;11.10;62.30
7502;DHT22;3792;47.740;7.606;2023-02-08T13:33:52;11.30;61.30
7502;DHT22;3792;47.740;7.606;2023-02-08T13:36:32;11.20;61.00
7502;DHT22;3792;47.740;7.606;2023-02-08T13:39:05;10.30;63.60
7502;DHT22;3792;47.740;7.606;2023-02-08T13:41:50;9.90;65.10
7502;DHT22;3792;47.740;7.606;2023-02-08T13:44:31;9.20;66.40
7502;DHT22;3792;47.740;7.606;2023-02-08T13:47:18;9.70;65.20
7502;DHT22;3792;47.740;7.606;2023-02-08T13:49:58;10.00;64.00
7502;DHT22;3792;47.740;7.606;2023-02-08T13:52:55;10.30;63.40
7502;DHT22;3792;47.740;7.606;2023-02-08T13:55:52;10.80;62.20
7502;DHT22;3792;47.740;7.606;2023-02-08T14:01:21;11.20;61.80
7502;DHT22;3792;47.740;7.606;2023-02-08T14:04:33;11.50;61.30
7502;DHT22;3792;47.740;7.606;2023-02-08T14:07:13;11.00;59.70
7502;DHT22;3792;47.740;7.606;2023-02-08T14:09:47;11.40;60.70
7502;DHT22;3792;47.740;7.606;2023-02-08T14:12:22;11.60;59.70
7502;DHT22;3792;47.740;7.606;2023-02-08T14:15:23;11.70;59.10
7502;DHT22;3792;47.740;7.606;2023-02-08T14:17:52;11.90;59.90
7502;DHT22;3792;47.740;7.606;2023-02-08T14:20:25;12.00;58.70
7502;DHT22;3792;47.740;7.606;2023-02-08T14:22:55;11.70;59.40
7502;DHT22;3792;47.740;7.606;2023-02-08T14:25:24;11.80;59.60
7502;DHT22;3792;47.740;7.606;2023-02-08T14:27:53;12.00;59.60
7502;DHT22;3792;47.740;7.606;2023-02-08T14:30:26;12.00;58.60
7502;DHT22;3792;47.740;7.606;2023-02-08T14:33:09;11.80;58.30
7502;DHT22;3792;47.740;7.606;2023-02-08T14:35:40;11.90;58.70
7502;DHT22;3792;47.740;7.606;2023-02-08T14:41:49;11.10;59.00
7502;DHT22;3792;47.740;7.606;2023-02-08T14:50:31;11.10;59.20
7502;DHT22;3792;47.740;7.606;2023-02-08T14:53:05;9.90;60.80
7502;DHT22;3792;47.740;7.606;2023-02-08T14:55:42;9.70;62.50
7502;DHT22;3792;47.740;7.606;2023-02-08T14:58:14;10.00;61.50
7502;DHT22;3792;47.740;7.606;2023-02-08T15:00:45;10.30;60.10
7502;DHT22;3792;47.740;7.606;2023-02-08T15:03:17;10.50;59.60
7502;DHT22;3792;47.740;7.606;2023-02-08T15:08:40;10.30;59.90
7502;DHT22;3792;47.740;7.606;2023-02-08T15:11:21;9.80;62.40
7502;DHT22;3792;47.740;7.606;2023-02-08T15:13:50;9.80;61.20
7502;DHT22;3792;47.740;7.606;2023-02-08T15:16:18;10.10;60.80
7502;DHT22;3792;47.740;7.606;2023-02-08T15:18:47;10.20;60.50
7502;DHT22;3792;47.740;7.606;2023-02-08T15:21:18;10.10;60.80
7502;DHT22;3792;47.740;7.606;2023-02-08T15:24:00;9.20;62.30
7502;DHT22;3792;47.740;7.606;2023-02-08T15:26:27;9.20;62.40
7502;DHT22;3792;47.740;7.606;2023-02-08T15:28:55;9.00;62.10
7502;DHT22;3792;47.740;7.606;2023-02-08T15:31:31;8.30;63.30
7502;DHT22;3792;47.740;7.606;2023-02-08T15:34:00;8.00;64.50
7502;DHT22;3792;47.740;7.606;2023-02-08T15:36:31;8.20;64.20
7502;DHT22;3792;47.740;7.606;2023-02-08T15:39:03;8.20;63.50
7502;DHT22;3792;47.740;7.606;2023-02-08T15:41:35;8.30;63.80
7502;DHT22;3792;47.740;7.606;2023-02-08T15:44:19;8.20;65.10
7502;DHT22;3792;47.740;7.606;2023-02-08T15:46:47;8.00;66.40
7502;DHT22;3792;47.740;7.606;2023-02-08T15:49:25;7.80;67.30
7502;DHT22;3792;47.740;7.606;2023-02-08T15:51:54;7.80;67.70
7502;DHT22;3792;47.740;7.606;2023-02-08T15:54:23;7.70;68.00
7502;DHT22;3792;47.740;7.606;2023-02-08T15:56:55;7.60;69.60
7502;DHT22;3792;47.740;7.606;2023-02-08T15:59:25;7.10;70.80
7502;DHT22;3792;47.740;7.606;2023-02-08T16:01:54;6.90;70.40
7502;DHT22;3792;47.740;7.606;2023-02-08T16:04:23;6.60;70.60
7502;DHT22;3792;47.740;7.606;2023-02-08T16:06:52;5.90;72.60
7502;DHT22;3792;47.740;7.606;2023-02-08T16:09:23;4.90;76.10
7502;DHT22;3792;47.740;7.606;2023-02-08T16:11:54;4.40;79.60
7502;DHT22;3792;47.740;7.606;2023-02-08T16:14:23;4.30;80.20
7502;DHT22;3792;47.740;7.606;2023-02-08T16:16:54;4.10;81.10
7502;DHT22;3792;47.740;7.606;2023-02-08T16:19:25;3.80;82.40
7502;DHT22;3792;47.740;7.606;2023-02-08T16:21:54;3.60;83.90
7502;DHT22;3792;47.740;7.606;2023-02-08T16:24:26;3.40;85.60
7502;DHT22;3792;47.740;7.606;2023-02-08T16:26:56;3.10;88.80
7502;DHT22;3792;47.740;7.606;2023-02-08T16:29:28;2.90;91.00
7502;DHT22;3792;47.740;7.606;2023-02-08T16:31:59;2.70;92.10
7502;DHT22;3792;47.740;7.606;2023-02-08T16:34:29;2.50;92.90
7502;DHT22;3792;47.740;7.606;2023-02-08T16:36:57;2.30;93.70
7502;DHT22;3792;47.740;7.606;2023-02-08T16:39:37;2.30;94.20
7502;DHT22;3792;47.740;7.606;2023-02-08T16:42:20;2.20;94.30
7502;DHT22;3792;47.740;7.606;2023-02-08T16:44:59;2.10;94.50
7502;DHT22;3792;47.740;7.606;2023-02-08T16:47:28;2.00;95.10
7502;DHT22;3792;47.740;7.606;2023-02-08T16:50:00;1.90;96.20
7502;DHT22;3792;47.740;7.606;2023-02-08T16:52:27;1.80;97.50
7502;DHT22;3792;47.740;7.606;2023-02-08T16:54:57;1.90;97.20
7502;DHT22;3792;47.740;7.606;2023-02-08T16:57:38;1.90;97.50
7502;DHT22;3792;47.740;7.606;2023-02-08T17:00:16;1.80;97.30
7502;DHT22;3792;47.740;7.606;2023-02-08T17:02:43;1.80;97.40